sensor_id;sensor_type;location;lat;lon;timestamp;P1;durP1;ratioP1;P2;durP2;ratioP2
40286;SDS011;25998;46.604;13.610;2023-07-22T00:02:12;5.53;;;2.90;;
40286;SDS011;25998;46.604;13.610;2023-07-22T00:05:23;3.92;;;2.95;;
40286;SDS011;25998;46.604;13.610;2023-07-22T00:08:34;7.43;;;3.17;;
40286;SDS011;25998;46.604;13.610;2023-07-22T00:11:45;7.07;;;3.65;;
40286;SDS011;25998;46.604;13.610;2023-07-22T00:14:56;7.45;;;3.78;;
40286;SDS011;25998;46.604;13.610;2023-07-22T00:18:07;4.45;;;3.13;;
40286;SDS011;25998;46.604;13.610;2023-07-22T00:21:18;6.18;;;3.50;;
40286;SDS011;25998;46.604;13.610;2023-07-22T00:24:29;6.80;;;3.15;;
40286;SDS011;25998;46.604;13.610;2023-07-22T00:27:40;6.55;;;3.50;;
40286;SDS011;25998;46.604;13.610;2023-07-22T00:30:51;5.25;;;3.53;;
40286;SDS011;25998;46.604;13.610;2023-07-22T00:34:03;7.13;;;3.50;;
40286;SDS011;25998;46.604;13.610;2023-07-22T00:37:14;6.88;;;3.50;;
40286;SDS011;25998;46.604;13.610;2023-07-22T00:40:27;4.53;;;3.30;;
40286;SDS011;25998;46.604;13.610;2023-07-22T00:43:42;5.65;;;3.33;;
40286;SDS011;25998;46.604;13.610;2023-07-22T00:46:53;5.70;;;3.15;;
40286;SDS011;25998;46.604;13.610;2023-07-22T00:50:07;4.82;;;3.58;;
40286;SDS011;25998;46.604;13.610;2023-07-22T00:53:18;5.88;;;3.45;;
40286;SDS011;25998;46.604;13.610;2023-07-22T00:56:29;5.25;;;3.35;;
40286;SDS011;25998;46.604;13.610;2023-07-22T00:59:44;4.45;;;3.40;;
40286;SDS011;25998;46.604;13.610;2023-07-22T01:02:55;4.82;;;3.08;;
40286;SDS011;25998;46.604;13.610;2023-07-22T01:06:06;6.03;;;3.30;;
40286;SDS011;25998;46.604;13.610;2023-07-22T01:09:17;4.93;;;3.20;;
40286;SDS011;25998;46.604;13.610;2023-07-22T01:12:28;5.88;;;3.42;;
40286;SDS011;25998;46.604;13.610;2023-07-22T01:15:39;5.10;;;3.08;;
40286;SDS011;25998;46.604;13.610;2023-07-22T01:18:52;5.07;;;3.63;;
40286;SDS011;25998;46.604;13.610;2023-07-22T01:22:05;6.18;;;3.30;;
40286;SDS011;25998;46.604;13.610;2023-07-22T01:25:21;3.83;;;3.03;;
40286;SDS011;25998;46.604;13.610;2023-07-22T01:28:34;5.60;;;3.30;;
40286;SDS011;25998;46.604;13.610;2023-07-22T01:31:47;7.15;;;3.35;;
40286;SDS011;25998;46.604;13.610;2023-07-22T01:34:58;5.70;;;3.30;;
40286;SDS011;25998;46.604;13.610;2023-07-22T01:38:09;5.38;;;3.70;;
40286;SDS011;25998;46.604;13.610;2023-07-22T01:41:20;5.45;;;3.10;;
40286;SDS011;25998;46.604;13.610;2023-07-22T01:44:31;6.15;;;3.50;;
40286;SDS011;25998;46.604;13.610;2023-07-22T01:47:42;5.97;;;3.90;;
40286;SDS011;25998;46.604;13.610;2023-07-22T01:50:53;6.18;;;3.13;;
40286;SDS011;25998;46.604;13.610;2023-07-22T01:54:04;6.05;;;3.42;;
40286;SDS011;25998;46.604;13.610;2023-07-22T01:57:15;4.85;;;3.45;;
40286;SDS011;25998;46.604;13.610;2023-07-22T02:00:26;5.57;;;3.28;;
40286;SDS011;25998;46.604;13.610;2023-07-22T02:03:36;4.50;;;2.90;;
40286;SDS011;25998;46.604;13.610;2023-07-22T02:06:48;6.88;;;3.13;;
40286;SDS011;25998;46.604;13.610;2023-07-22T02:09:58;5.53;;;3.30;;
40286;SDS011;25998;46.604;13.610;2023-07-22T02:13:09;5.15;;;3.20;;
40286;SDS011;25998;46.604;13.610;2023-07-22T02:16:21;4.05;;;2.97;;
40286;SDS011;25998;46.604;13.610;2023-07-22T02:19:32;4.28;;;3.22;;
40286;SDS011;25998;46.604;13.610;2023-07-22T02:22:43;5.50;;;2.83;;
40286;SDS011;25998;46.604;13.610;2023-07-22T02:25:54;3.63;;;3.17;;
40286;SDS011;25998;46.604;13.610;2023-07-22T02:29:05;6.18;;;3.47;;
40286;SDS011;25998;46.604;13.610;2023-07-22T02:32:16;4.53;;;3.10;;
40286;SDS011;25998;46.604;13.610;2023-07-22T02:35:26;6.05;;;3.30;;
40286;SDS011;25998;46.604;13.610;2023-07-22T02:38:37;6.38;;;3.00;;
40286;SDS011;25998;46.604;13.610;2023-07-22T02:41:48;3.70;;;2.90;;
40286;SDS011;25998;46.604;13.610;2023-07-22T02:44:59;4.80;;;3.13;;
40286;SDS011;25998;46.604;13.610;2023-07-22T02:48:10;5.10;;;2.67;;
40286;SDS011;25998;46.604;13.610;2023-07-22T02:51:21;6.93;;;2.83;;
40286;SDS011;25998;46.604;13.610;2023-07-22T02:54:38;4.95;;;2.78;;
40286;SDS011;25998;46.604;13.610;2023-07-22T02:57:51;5.60;;;3.10;;
40286;SDS011;25998;46.604;13.610;2023-07-22T03:01:03;5.22;;;3.20;;
40286;SDS011;25998;46.604;13.610;2023-07-22T03:04:14;4.93;;;3.03;;
40286;SDS011;25998;46.604;13.610;2023-07-22T03:07:25;4.40;;;3.45;;
40286;SDS011;25998;46.604;13.610;2023-07-22T03:10:37;5.90;;;3.45;;
40286;SDS011;25998;46.604;13.610;2023-07-22T03:13:48;4.55;;;3.00;;
40286;SDS011;25998;46.604;13.610;2023-07-22T03:16:59;4.28;;;3.17;;
40286;SDS011;25998;46.604;13.610;2023-07-22T03:20:10;6.03;;;3.25;;
40286;SDS011;25998;46.604;13.610;2023-07-22T03:23:24;5.32;;;3.20;;
40286;SDS011;25998;46.604;13.610;2023-07-22T03:26:35;3.95;;;3.25;;
40286;SDS011;25998;46.604;13.610;2023-07-22T03:29:46;5.30;;;3.70;;
40286;SDS011;25998;46.604;13.610;2023-07-22T03:32:57;4.30;;;3.28;;
40286;SDS011;25998;46.604;13.610;2023-07-22T03:36:08;6.18;;;3.08;;
40286;SDS011;25998;46.604;13.610;2023-07-22T03:39:19;6.95;;;3.10;;
40286;SDS011;25998;46.604;13.610;2023-07-22T03:42:30;7.32;;;3.58;;
40286;SDS011;25998;46.604;13.610;2023-07-22T03:45:41;4.35;;;3.13;;
40286;SDS011;25998;46.604;13.610;2023-07-22T03:48:53;6.00;;;3.13;;
40286;SDS011;25998;46.604;13.610;2023-07-22T03:52:04;6.20;;;3.15;;
40286;SDS011;25998;46.604;13.610;2023-07-22T03:55:15;5.22;;;3.38;;
40286;SDS011;25998;46.604;13.610;2023-07-22T03:58:26;5.60;;;3.30;;
40286;SDS011;25998;46.604;13.610;2023-07-22T04:01:37;5.90;;;3.22;;
40286;SDS011;25998;46.604;13.610;2023-07-22T04:04:48;5.50;;;3.40;;
40286;SDS011;25998;46.604;13.610;2023-07-22T04:08:00;5.50;;;3.03;;
40286;SDS011;25998;46.604;13.610;2023-07-22T04:11:11;4.80;;;3.20;;
40286;SDS011;25998;46.604;13.610;2023-07-22T04:14:21;5.35;;;3.58;;
40286;SDS011;25998;46.604;13.610;2023-07-22T04:17:33;5.18;;;3.22;;
40286;SDS011;25998;46.604;13.610;2023-07-22T04:20:44;5.15;;;3.40;;
40286;SDS011;25998;46.604;13.610;2023-07-22T04:23:55;6.30;;;3.50;;
40286;SDS011;25998;46.604;13.610;2023-07-22T04:27:06;7.68;;;4.07;;
40286;SDS011;25998;46.604;13.610;2023-07-22T04:30:17;5.15;;;3.70;;
40286;SDS011;25998;46.604;13.610;2023-07-22T04:33:30;6.88;;;3.70;;
40286;SDS011;25998;46.604;13.610;2023-07-22T04:36:41;5.20;;;3.60;;
40286;SDS011;25998;46.604;13.610;2023-07-22T04:39:53;6.65;;;3.83;;
40286;SDS011;25998;46.604;13.610;2023-07-22T04:43:04;4.72;;;3.90;;
40286;SDS011;25998;46.604;13.610;2023-07-22T04:46:15;6.65;;;3.63;;
40286;SDS011;25998;46.604;13.610;2023-07-22T04:49:25;6.18;;;4.32;;
40286;SDS011;25998;46.604;13.610;2023-07-22T04:52:36;5.78;;;3.45;;
40286;SDS011;25998;46.604;13.610;2023-07-22T04:55:47;6.10;;;4.30;;
40286;SDS011;25998;46.604;13.610;2023-07-22T04:58:58;5.45;;;4.10;;
40286;SDS011;25998;46.604;13.610;2023-07-22T05:02:09;4.95;;;3.70;;
40286;SDS011;25998;46.604;13.610;2023-07-22T05:05:19;4.80;;;3.50;;
40286;SDS011;25998;46.604;13.610;2023-07-22T05:08:32;6.63;;;3.97;;
40286;SDS011;25998;46.604;13.610;2023-07-22T05:11:42;9.25;;;4.10;;
40286;SDS011;25998;46.604;13.610;2023-07-22T05:14:53;5.47;;;3.85;;
40286;SDS011;25998;46.604;13.610;2023-07-22T05:18:04;4.25;;;3.50;;
40286;SDS011;25998;46.604;13.610;2023-07-22T05:21:15;7.22;;;3.70;;
40286;SDS011;25998;46.604;13.610;2023-07-22T05:24:26;6.00;;;3.63;;
40286;SDS011;25998;46.604;13.610;2023-07-22T05:27:37;7.88;;;3.63;;
40286;SDS011;25998;46.604;13.610;2023-07-22T05:30:49;4.60;;;3.42;;
40286;SDS011;25998;46.604;13.610;2023-07-22T05:34:00;7.07;;;3.35;;
40286;SDS011;25998;46.604;13.610;2023-07-22T05:37:11;5.30;;;3.40;;
40286;SDS011;25998;46.604;13.610;2023-07-22T05:40:22;5.97;;;3.75;;
40286;SDS011;25998;46.604;13.610;2023-07-22T05:43:32;8.75;;;3.50;;
40286;SDS011;25998;46.604;13.610;2023-07-22T05:46:43;6.15;;;3.47;;
40286;SDS011;25998;46.604;13.610;2023-07-22T05:49:54;6.45;;;3.13;;
40286;SDS011;25998;46.604;13.610;2023-07-22T05:53:05;4.57;;;3.47;;
40286;SDS011;25998;46.604;13.610;2023-07-22T05:56:16;4.97;;;3.50;;
40286;SDS011;25998;46.604;13.610;2023-07-22T05:59:27;8.13;;;3.90;;
40286;SDS011;25998;46.604;13.610;2023-07-22T06:02:38;5.97;;;4.07;;
40286;SDS011;25998;46.604;13.610;2023-07-22T06:05:49;6.88;;;5.88;;
40286;SDS011;25998;46.604;13.610;2023-07-22T06:09:00;6.05;;;4.05;;
40286;SDS011;25998;46.604;13.610;2023-07-22T06:12:11;5.15;;;4.10;;
40286;SDS011;25998;46.604;13.610;2023-07-22T06:15:23;5.18;;;4.22;;
40286;SDS011;25998;46.604;13.610;2023-07-22T06:18:34;8.80;;;6.05;;
40286;SDS011;25998;46.604;13.610;2023-07-22T06:21:44;7.40;;;6.70;;
40286;SDS011;25998;46.604;13.610;2023-07-22T06:24:55;7.90;;;7.20;;
40286;SDS011;25998;46.604;13.610;2023-07-22T06:28:06;8.05;;;7.25;;
40286;SDS011;25998;46.604;13.610;2023-07-22T06:31:18;9.10;;;7.15;;
40286;SDS011;25998;46.604;13.610;2023-07-22T06:34:29;11.25;;;8.00;;
40286;SDS011;25998;46.604;13.610;2023-07-22T06:37:40;7.63;;;6.93;;
40286;SDS011;25998;46.604;13.610;2023-07-22T06:40:53;11.38;;;6.53;;
40286;SDS011;25998;46.604;13.610;2023-07-22T06:44:05;12.23;;;10.98;;
40286;SDS011;25998;46.604;13.610;2023-07-22T06:47:15;8.40;;;7.30;;
40286;SDS011;25998;46.604;13.610;2023-07-22T06:50:26;10.98;;;7.70;;
40286;SDS011;25998;46.604;13.610;2023-07-22T06:53:37;6.88;;;6.28;;
40286;SDS011;25998;46.604;13.610;2023-07-22T06:56:48;6.72;;;4.90;;
40286;SDS011;25998;46.604;13.610;2023-07-22T06:59:59;5.50;;;4.90;;
40286;SDS011;25998;46.604;13.610;2023-07-22T07:03:10;6.05;;;4.80;;
40286;SDS011;25998;46.604;13.610;2023-07-22T07:06:21;5.93;;;5.15;;
40286;SDS011;25998;46.604;13.610;2023-07-22T07:09:32;6.10;;;4.95;;
40286;SDS011;25998;46.604;13.610;2023-07-22T07:12:44;5.38;;;4.05;;
40286;SDS011;25998;46.604;13.610;2023-07-22T07:15:55;7.50;;;4.22;;
40286;SDS011;25998;46.604;13.610;2023-07-22T07:19:06;6.85;;;5.10;;
40286;SDS011;25998;46.604;13.610;2023-07-22T07:22:17;8.70;;;4.95;;
40286;SDS011;25998;46.604;13.610;2023-07-22T07:25:27;5.65;;;4.47;;
40286;SDS011;25998;46.604;13.610;2023-07-22T07:28:38;7.07;;;4.80;;
40286;SDS011;25998;46.604;13.610;2023-07-22T07:31:49;7.10;;;5.50;;
40286;SDS011;25998;46.604;13.610;2023-07-22T07:35:00;9.57;;;8.57;;
40286;SDS011;25998;46.604;13.610;2023-07-22T07:38:11;6.88;;;6.20;;
40286;SDS011;25998;46.604;13.610;2023-07-22T07:41:22;5.75;;;4.93;;
40286;SDS011;25998;46.604;13.610;2023-07-22T07:44:33;7.38;;;5.22;;
40286;SDS011;25998;46.604;13.610;2023-07-22T07:47:43;10.77;;;6.60;;
40286;SDS011;25998;46.604;13.610;2023-07-22T07:50:55;5.70;;;3.65;;
40286;SDS011;25998;46.604;13.610;2023-07-22T07:54:05;4.20;;;3.60;;
40286;SDS011;25998;46.604;13.610;2023-07-22T07:57:17;4.95;;;3.78;;
40286;SDS011;25998;46.604;13.610;2023-07-22T08:00:28;6.03;;;3.92;;
40286;SDS011;25998;46.604;13.610;2023-07-22T08:03:40;5.05;;;4.20;;
40286;SDS011;25998;46.604;13.610;2023-07-22T08:06:52;5.13;;;3.90;;
40286;SDS011;25998;46.604;13.610;2023-07-22T08:10:02;5.32;;;3.55;;
40286;SDS011;25998;46.604;13.610;2023-07-22T08:13:14;5.40;;;3.92;;
40286;SDS011;25998;46.604;13.610;2023-07-22T08:16:25;5.25;;;4.20;;
40286;SDS011;25998;46.604;13.610;2023-07-22T08:19:36;5.57;;;3.67;;
40286;SDS011;25998;46.604;13.610;2023-07-22T08:22:47;4.50;;;3.75;;
40286;SDS011;25998;46.604;13.610;2023-07-22T08:25:58;5.32;;;3.58;;
40286;SDS011;25998;46.604;13.610;2023-07-22T08:29:09;5.13;;;4.13;;
40286;SDS011;25998;46.604;13.610;2023-07-22T08:32:20;5.45;;;3.83;;
40286;SDS011;25998;46.604;13.610;2023-07-22T08:35:31;4.55;;;3.88;;
40286;SDS011;25998;46.604;13.610;2023-07-22T08:38:43;5.80;;;4.10;;
40286;SDS011;25998;46.604;13.610;2023-07-22T08:41:54;4.35;;;3.78;;
40286;SDS011;25998;46.604;13.610;2023-07-22T08:45:06;4.65;;;3.65;;
40286;SDS011;25998;46.604;13.610;2023-07-22T08:48:21;19.05;;;5.45;;
40286;SDS011;25998;46.604;13.610;2023-07-22T08:51:36;5.47;;;4.10;;
40286;SDS011;25998;46.604;13.610;2023-07-22T08:54:47;21.45;;;5.30;;
40286;SDS011;25998;46.604;13.610;2023-07-22T08:58:00;9.00;;;4.28;;
40286;SDS011;25998;46.604;13.610;2023-07-22T09:01:12;6.15;;;4.22;;
40286;SDS011;25998;46.604;13.610;2023-07-22T09:04:23;6.05;;;4.05;;
40286;SDS011;25998;46.604;13.610;2023-07-22T09:07:35;5.43;;;4.32;;
40286;SDS011;25998;46.604;13.610;2023-07-22T09:10:46;4.65;;;4.07;;
40286;SDS011;25998;46.604;13.610;2023-07-22T09:13:58;5.18;;;3.80;;
40286;SDS011;25998;46.604;13.610;2023-07-22T09:17:10;6.20;;;4.15;;
40286;SDS011;25998;46.604;13.610;2023-07-22T09:20:21;6.72;;;4.35;;
40286;SDS011;25998;46.604;13.610;2023-07-22T09:23:33;4.40;;;4.00;;
40286;SDS011;25998;46.604;13.610;2023-07-22T09:26:46;5.20;;;4.50;;
40286;SDS011;25998;46.604;13.610;2023-07-22T09:29:56;4.43;;;4.00;;
40286;SDS011;25998;46.604;13.610;2023-07-22T09:33:20;4.95;;;4.38;;
40286;SDS011;25998;46.604;13.610;2023-07-22T09:36:32;7.97;;;4.38;;
40286;SDS011;25998;46.604;13.610;2023-07-22T09:39:54;4.68;;;4.05;;
40286;SDS011;25998;46.604;13.610;2023-07-22T09:43:05;4.97;;;4.45;;
40286;SDS011;25998;46.604;13.610;2023-07-22T09:46:19;13.40;;;6.47;;
40286;SDS011;25998;46.604;13.610;2023-07-22T09:49:29;13.23;;;7.18;;
40286;SDS011;25998;46.604;13.610;2023-07-22T09:52:41;17.15;;;9.32;;
40286;SDS011;25998;46.604;13.610;2023-07-22T09:56:03;8.75;;;5.35;;
40286;SDS011;25998;46.604;13.610;2023-07-22T09:59:14;5.75;;;4.30;;
40286;SDS011;25998;46.604;13.610;2023-07-22T10:02:28;5.85;;;4.35;;
40286;SDS011;25998;46.604;13.610;2023-07-22T10:05:40;6.45;;;4.70;;
40286;SDS011;25998;46.604;13.610;2023-07-22T10:08:53;7.35;;;4.38;;
40286;SDS011;25998;46.604;13.610;2023-07-22T10:12:06;5.03;;;4.45;;
40286;SDS011;25998;46.604;13.610;2023-07-22T10:15:18;5.28;;;4.43;;
40286;SDS011;25998;46.604;13.610;2023-07-22T10:18:29;4.97;;;4.35;;
40286;SDS011;25998;46.604;13.610;2023-07-22T10:21:42;4.90;;;4.22;;
40286;SDS011;25998;46.604;13.610;2023-07-22T10:24:53;6.28;;;4.28;;
40286;SDS011;25998;46.604;13.610;2023-07-22T10:28:05;4.85;;;4.15;;
40286;SDS011;25998;46.604;13.610;2023-07-22T10:31:16;4.47;;;4.07;;
40286;SDS011;25998;46.604;13.610;2023-07-22T10:34:30;5.95;;;4.38;;
40286;SDS011;25998;46.604;13.610;2023-07-22T10:37:41;5.10;;;3.85;;
40286;SDS011;25998;46.604;13.610;2023-07-22T10:40:55;4.68;;;4.03;;
40286;SDS011;25998;46.604;13.610;2023-07-22T10:44:06;4.63;;;3.85;;
40286;SDS011;25998;46.604;13.610;2023-07-22T10:47:33;5.65;;;3.80;;
40286;SDS011;25998;46.604;13.610;2023-07-22T10:50:47;4.45;;;4.03;;
40286;SDS011;25998;46.604;13.610;2023-07-22T10:53:59;5.28;;;4.05;;
40286;SDS011;25998;46.604;13.610;2023-07-22T11:00:28;5.00;;;3.90;;
40286;SDS011;25998;46.604;13.610;2023-07-22T11:07:33;5.22;;;3.80;;
40286;SDS011;25998;46.604;13.610;2023-07-22T11:10:52;4.25;;;3.58;;
40286;SDS011;25998;46.604;13.610;2023-07-22T11:14:17;4.97;;;4.10;;
40286;SDS011;25998;46.604;13.610;2023-07-22T11:17:32;5.80;;;3.90;;
40286;SDS011;25998;46.604;13.610;2023-07-22T11:20:43;4.80;;;4.05;;
40286;SDS011;25998;46.604;13.610;2023-07-22T11:23:54;4.47;;;3.67;;
40286;SDS011;25998;46.604;13.610;2023-07-22T11:27:05;6.22;;;4.03;;
40286;SDS011;25998;46.604;13.610;2023-07-22T11:30:18;5.45;;;4.00;;
40286;SDS011;25998;46.604;13.610;2023-07-22T11:33:37;6.68;;;4.00;;
40286;SDS011;25998;46.604;13.610;2023-07-22T11:36:50;4.45;;;3.85;;
40286;SDS011;25998;46.604;13.610;2023-07-22T11:40:02;4.70;;;3.75;;
40286;SDS011;25998;46.604;13.610;2023-07-22T11:43:13;5.10;;;4.00;;
40286;SDS011;25998;46.604;13.610;2023-07-22T11:46:25;5.90;;;4.18;;
40286;SDS011;25998;46.604;13.610;2023-07-22T11:49:37;5.47;;;3.88;;
40286;SDS011;25998;46.604;13.610;2023-07-22T11:52:50;6.60;;;4.22;;
40286;SDS011;25998;46.604;13.610;2023-07-22T11:56:02;6.57;;;3.60;;
40286;SDS011;25998;46.604;13.610;2023-07-22T11:59:13;6.90;;;4.38;;
40286;SDS011;25998;46.604;13.610;2023-07-22T12:02:27;5.22;;;4.22;;
40286;SDS011;25998;46.604;13.610;2023-07-22T12:05:47;6.03;;;4.45;;
40286;SDS011;25998;46.604;13.610;2023-07-22T12:08:58;6.03;;;3.80;;
40286;SDS011;25998;46.604;13.610;2023-07-22T12:12:11;6.50;;;3.80;;
40286;SDS011;25998;46.604;13.610;2023-07-22T12:15:22;5.78;;;4.18;;
40286;SDS011;25998;46.604;13.610;2023-07-22T12:18:43;5.57;;;3.83;;
40286;SDS011;25998;46.604;13.610;2023-07-22T12:21:55;5.43;;;4.10;;
40286;SDS011;25998;46.604;13.610;2023-07-22T12:25:06;5.25;;;3.83;;
40286;SDS011;25998;46.604;13.610;2023-07-22T12:28:17;5.40;;;3.55;;
40286;SDS011;25998;46.604;13.610;2023-07-22T12:31:28;4.45;;;4.03;;
40286;SDS011;25998;46.604;13.610;2023-07-22T12:34:38;4.72;;;4.10;;
40286;SDS011;25998;46.604;13.610;2023-07-22T12:37:49;5.95;;;4.10;;
40286;SDS011;25998;46.604;13.610;2023-07-22T12:41:00;5.00;;;3.80;;
40286;SDS011;25998;46.604;13.610;2023-07-22T12:44:11;5.30;;;3.88;;
40286;SDS011;25998;46.604;13.610;2023-07-22T12:47:22;5.00;;;3.90;;
40286;SDS011;25998;46.604;13.610;2023-07-22T12:50:33;4.47;;;3.70;;
40286;SDS011;25998;46.604;13.610;2023-07-22T12:53:44;5.45;;;3.90;;
40286;SDS011;25998;46.604;13.610;2023-07-22T12:56:55;5.68;;;3.90;;
40286;SDS011;25998;46.604;13.610;2023-07-22T13:00:06;5.68;;;3.70;;
40286;SDS011;25998;46.604;13.610;2023-07-22T13:03:19;5.80;;;4.32;;
40286;SDS011;25998;46.604;13.610;2023-07-22T13:06:30;5.90;;;4.07;;
40286;SDS011;25998;46.604;13.610;2023-07-22T13:09:47;5.18;;;4.00;;
40286;SDS011;25998;46.604;13.610;2023-07-22T13:13:00;3.95;;;3.47;;
40286;SDS011;25998;46.604;13.610;2023-07-22T13:16:11;6.22;;;4.05;;
40286;SDS011;25998;46.604;13.610;2023-07-22T13:19:22;4.38;;;3.55;;
40286;SDS011;25998;46.604;13.610;2023-07-22T13:22:33;3.90;;;3.08;;
40286;SDS011;25998;46.604;13.610;2023-07-22T13:25:43;3.55;;;2.90;;
40286;SDS011;25998;46.604;13.610;2023-07-22T13:28:54;5.72;;;3.17;;
40286;SDS011;25998;46.604;13.610;2023-07-22T13:32:05;4.70;;;3.35;;
40286;SDS011;25998;46.604;13.610;2023-07-22T13:35:16;4.72;;;3.30;;
40286;SDS011;25998;46.604;13.610;2023-07-22T13:38:28;3.88;;;3.38;;
40286;SDS011;25998;46.604;13.610;2023-07-22T13:41:39;5.20;;;3.50;;
40286;SDS011;25998;46.604;13.610;2023-07-22T13:44:50;4.53;;;3.53;;
40286;SDS011;25998;46.604;13.610;2023-07-22T13:48:01;3.60;;;3.17;;
40286;SDS011;25998;46.604;13.610;2023-07-22T13:51:12;3.42;;;2.80;;
40286;SDS011;25998;46.604;13.610;2023-07-22T13:54:23;3.65;;;2.80;;
40286;SDS011;25998;46.604;13.610;2023-07-22T13:57:33;4.82;;;3.10;;
40286;SDS011;25998;46.604;13.610;2023-07-22T14:00:44;5.55;;;3.08;;
40286;SDS011;25998;46.604;13.610;2023-07-22T14:03:55;3.53;;;2.92;;
40286;SDS011;25998;46.604;13.610;2023-07-22T14:07:06;2.90;;;2.60;;
40286;SDS011;25998;46.604;13.610;2023-07-22T14:10:17;3.40;;;2.53;;
40286;SDS011;25998;46.604;13.610;2023-07-22T14:13:27;4.25;;;2.50;;
40286;SDS011;25998;46.604;13.610;2023-07-22T14:16:38;3.20;;;2.45;;
40286;SDS011;25998;46.604;13.610;2023-07-22T14:19:49;3.85;;;2.25;;
40286;SDS011;25998;46.604;13.610;2023-07-22T14:23:00;4.60;;;2.75;;
40286;SDS011;25998;46.604;13.610;2023-07-22T14:26:11;4.50;;;2.70;;
40286;SDS011;25998;46.604;13.610;2023-07-22T14:29:22;3.35;;;2.50;;
40286;SDS011;25998;46.604;13.610;2023-07-22T14:32:35;3.13;;;2.47;;
40286;SDS011;25998;46.604;13.610;2023-07-22T14:35:46;3.22;;;2.45;;
40286;SDS011;25998;46.604;13.610;2023-07-22T14:38:56;3.97;;;2.40;;
40286;SDS011;25998;46.604;13.610;2023-07-22T14:42:08;5.75;;;2.83;;
40286;SDS011;25998;46.604;13.610;2023-07-22T14:45:19;3.22;;;2.42;;
40286;SDS011;25998;46.604;13.610;2023-07-22T14:48:29;3.60;;;2.72;;
40286;SDS011;25998;46.604;13.610;2023-07-22T14:51:40;3.00;;;2.30;;
40286;SDS011;25998;46.604;13.610;2023-07-22T14:54:51;3.88;;;3.08;;
40286;SDS011;25998;46.604;13.610;2023-07-22T14:58:02;3.20;;;2.42;;
40286;SDS011;25998;46.604;13.610;2023-07-22T15:01:13;3.75;;;2.70;;
40286;SDS011;25998;46.604;13.610;2023-07-22T15:04:23;4.18;;;3.38;;
40286;SDS011;25998;46.604;13.610;2023-07-22T15:07:34;3.88;;;3.00;;
40286;SDS011;25998;46.604;13.610;2023-07-22T15:10:45;5.88;;;3.75;;
40286;SDS011;25998;46.604;13.610;2023-07-22T15:13:56;4.40;;;2.95;;
40286;SDS011;25998;46.604;13.610;2023-07-22T15:17:07;5.68;;;3.20;;
40286;SDS011;25998;46.604;13.610;2023-07-22T15:20:18;3.80;;;2.80;;
40286;SDS011;25998;46.604;13.610;2023-07-22T15:31:44;4.85;;;2.63;;
40286;SDS011;25998;46.604;13.610;2023-07-22T15:34:55;11.50;;;3.78;;
40286;SDS011;25998;46.604;13.610;2023-07-22T15:38:06;11.57;;;3.85;;
40286;SDS011;25998;46.604;13.610;2023-07-22T15:41:17;7.45;;;3.25;;
40286;SDS011;25998;46.604;13.610;2023-07-22T15:44:28;6.55;;;3.13;;
40286;SDS011;25998;46.604;13.610;2023-07-22T15:47:39;11.00;;;3.38;;
40286;SDS011;25998;46.604;13.610;2023-07-22T15:50:50;8.07;;;3.35;;
40286;SDS011;25998;46.604;13.610;2023-07-22T15:54:01;8.70;;;4.03;;
40286;SDS011;25998;46.604;13.610;2023-07-22T15:57:11;9.95;;;3.60;;
40286;SDS011;25998;46.604;13.610;2023-07-22T16:00:22;5.88;;;3.15;;
40286;SDS011;25998;46.604;13.610;2023-07-22T16:03:33;4.93;;;2.70;;
40286;SDS011;25998;46.604;13.610;2023-07-22T16:06:46;4.22;;;3.10;;
40286;SDS011;25998;46.604;13.610;2023-07-22T16:09:57;5.30;;;3.28;;
40286;SDS011;25998;46.604;13.610;2023-07-22T16:13:08;8.40;;;3.70;;
40286;SDS011;25998;46.604;13.610;2023-07-22T16:16:19;5.97;;;3.08;;
40286;SDS011;25998;46.604;13.610;2023-07-22T16:19:31;5.90;;;3.10;;
40286;SDS011;25998;46.604;13.610;2023-07-22T16:22:41;5.78;;;3.65;;
40286;SDS011;25998;46.604;13.610;2023-07-22T16:25:52;5.55;;;3.67;;
40286;SDS011;25998;46.604;13.610;2023-07-22T16:29:05;5.68;;;3.47;;
40286;SDS011;25998;46.604;13.610;2023-07-22T16:32:16;5.68;;;3.00;;
40286;SDS011;25998;46.604;13.610;2023-07-22T16:35:27;5.78;;;3.30;;
40286;SDS011;25998;46.604;13.610;2023-07-22T16:38:39;6.57;;;3.17;;
40286;SDS011;25998;46.604;13.610;2023-07-22T16:41:50;4.82;;;2.97;;
40286;SDS011;25998;46.604;13.610;2023-07-22T16:45:01;4.93;;;3.10;;
40286;SDS011;25998;46.604;13.610;2023-07-22T16:48:12;4.10;;;3.05;;
40286;SDS011;25998;46.604;13.610;2023-07-22T16:51:23;4.88;;;3.30;;
40286;SDS011;25998;46.604;13.610;2023-07-22T16:54:34;4.53;;;3.50;;
40286;SDS011;25998;46.604;13.610;2023-07-22T16:57:45;6.45;;;3.33;;
40286;SDS011;25998;46.604;13.610;2023-07-22T17:00:56;3.85;;;3.20;;
40286;SDS011;25998;46.604;13.610;2023-07-22T17:04:06;5.28;;;3.35;;
40286;SDS011;25998;46.604;13.610;2023-07-22T17:07:17;5.80;;;3.25;;
40286;SDS011;25998;46.604;13.610;2023-07-22T17:10:28;4.43;;;3.60;;
40286;SDS011;25998;46.604;13.610;2023-07-22T17:13:41;5.85;;;3.28;;
40286;SDS011;25998;46.604;13.610;2023-07-22T17:16:51;4.68;;;3.20;;
40286;SDS011;25998;46.604;13.610;2023-07-22T17:20:02;4.60;;;3.38;;
40286;SDS011;25998;46.604;13.610;2023-07-22T17:23:15;5.20;;;3.30;;
40286;SDS011;25998;46.604;13.610;2023-07-22T17:26:26;6.53;;;3.20;;
40286;SDS011;25998;46.604;13.610;2023-07-22T17:29:37;4.82;;;3.03;;
40286;SDS011;25998;46.604;13.610;2023-07-22T17:32:47;3.95;;;3.20;;
40286;SDS011;25998;46.604;13.610;2023-07-22T17:36:00;6.60;;;3.10;;
40286;SDS011;25998;46.604;13.610;2023-07-22T17:39:11;4.43;;;3.15;;
40286;SDS011;25998;46.604;13.610;2023-07-22T17:42:22;4.22;;;3.30;;
40286;SDS011;25998;46.604;13.610;2023-07-22T17:45:33;5.05;;;3.38;;
40286;SDS011;25998;46.604;13.610;2023-07-22T17:48:44;4.63;;;3.30;;
40286;SDS011;25998;46.604;13.610;2023-07-22T17:51:54;4.00;;;3.25;;
40286;SDS011;25998;46.604;13.610;2023-07-22T17:55:05;5.82;;;3.47;;
40286;SDS011;25998;46.604;13.610;2023-07-22T17:58:18;9.38;;;3.47;;
40286;SDS011;25998;46.604;13.610;2023-07-22T18:01:28;6.68;;;3.85;;
40286;SDS011;25998;46.604;13.610;2023-07-22T18:04:39;5.90;;;3.38;;
40286;SDS011;25998;46.604;13.610;2023-07-22T18:07:50;4.03;;;2.95;;
40286;SDS011;25998;46.604;13.610;2023-07-22T18:11:02;5.35;;;3.28;;
40286;SDS011;25998;46.604;13.610;2023-07-22T18:14:13;5.30;;;3.45;;
40286;SDS011;25998;46.604;13.610;2023-07-22T18:17:24;4.97;;;3.42;;
40286;SDS011;25998;46.604;13.610;2023-07-22T18:20:35;5.03;;;3.03;;
40286;SDS011;25998;46.604;13.610;2023-07-22T18:23:46;4.82;;;3.40;;
40286;SDS011;25998;46.604;13.610;2023-07-22T18:26:56;4.80;;;3.30;;
40286;SDS011;25998;46.604;13.610;2023-07-22T18:30:08;7.43;;;3.60;;
40286;SDS011;25998;46.604;13.610;2023-07-22T18:33:19;4.35;;;3.22;;
40286;SDS011;25998;46.604;13.610;2023-07-22T18:36:30;5.30;;;3.15;;
40286;SDS011;25998;46.604;13.610;2023-07-22T18:39:41;4.68;;;3.17;;
40286;SDS011;25998;46.604;13.610;2023-07-22T18:42:53;4.90;;;3.30;;
40286;SDS011;25998;46.604;13.610;2023-07-22T18:46:16;5.80;;;3.03;;
40286;SDS011;25998;46.604;13.610;2023-07-22T18:49:32;5.20;;;3.30;;
40286;SDS011;25998;46.604;13.610;2023-07-22T18:52:44;5.25;;;3.60;;
40286;SDS011;25998;46.604;13.610;2023-07-22T18:55:55;6.45;;;3.45;;
40286;SDS011;25998;46.604;13.610;2023-07-22T18:59:06;5.25;;;3.28;;
40286;SDS011;25998;46.604;13.610;2023-07-22T19:02:16;4.55;;;3.42;;
40286;SDS011;25998;46.604;13.610;2023-07-22T19:05:27;3.53;;;2.92;;
40286;SDS011;25998;46.604;13.610;2023-07-22T19:08:38;4.25;;;3.08;;
40286;SDS011;25998;46.604;13.610;2023-07-22T19:11:49;6.05;;;3.47;;